Time;durP1;ratioP1;P1;durP2;ratioP2;P2;SDS_P1;SDS_P2;PMS_P1;PMS_P2;Temp;Humidity;BMP_temperature;BMP_pressure;BME280_temperature;BME280_humidity;BME280_pressure;Samples;Min_cycle;Max_cycle;Signal;HPM_P1;HPM_P2
2021/09/27 00:01:40;;;;;;;6.83;3.58;;;;;;;10.97;100.00;99554.62;1732343;82;21471;-74
2021/09/27 00:04:16;;;;;;;6.22;3.27;;;;;;;10.96;100.00;99555.50;1715001;82;21443;-73
2021/09/27 00:06:44;;;;;;;8.40;3.50;;;;;;;10.97;100.00;99556.38;1738876;82;20901;-73
2021/09/27 00:09:21;;;;;;;8.65;3.55;;;;;;;10.96;100.00;99555.95;1738814;82;20877;-73
2021/09/27 00:11:52;;;;;;;8.58;3.47;;;;;;;10.93;100.00;99555.95;1738275;82;21416;-73
2021/09/27 00:14:24;;;;;;;8.80;3.02;;;;;;;10.90;100.00;99554.19;1736956;82;20916;-73
2021/09/27 00:16:57;;;;;;;8.40;3.22;;;;;;;10.86;100.00;99559.00;1738453;80;21036;-73
2021/09/27 00:19:39;;;;;;;7.75;3.30;;;;;;;10.80;100.00;99566.05;1684994;83;21019;-72
2021/09/27 00:22:10;;;;;;;7.35;3.25;;;;;;;10.72;100.00;99562.97;1684806;83;20955;-73
2021/09/27 00:24:43;;;;;;;6.78;3.67;;;;;;;10.66;100.00;99564.29;1683034;83;21084;-73
2021/09/27 00:27:13;;;;;;;8.03;3.58;;;;;;;10.61;100.00;99563.41;1683899;83;20931;-74
2021/09/27 00:29:44;;;;;;;6.00;2.95;;;;;;;10.57;100.00;99559.45;1683381;83;21458;-74
2021/09/27 00:32:20;;;;;;;7.55;3.87;;;;;;;10.52;100.00;99563.41;1665025;83;20927;-75
2021/09/27 00:34:55;;;;;;;9.58;3.40;;;;;;;10.49;100.00;99566.05;1648044;85;20907;-74
2021/09/27 00:37:30;;;;;;;6.87;3.20;;;;;;;10.44;100.00;99565.16;1682284;83;21480;-74
2021/09/27 00:40:20;;;;;;;5.60;3.42;;;;;;;10.39;100.00;99560.29;1681981;83;20987;-74
2021/09/27 00:42:57;;;;;;;9.05;3.10;;;;;;;10.34;100.00;99556.77;1656828;85;21411;-73
2021/09/27 00:45:27;;;;;;;4.80;3.17;;;;;;;10.27;100.00;99565.11;1657224;85;20931;-73
2021/09/27 00:47:59;;;;;;;5.37;3.10;;;;;;;10.20;100.00;99565.97;1664115;83;21750;-73
2021/09/27 00:50:33;;;;;;;6.12;3.50;;;;;;;10.15;100.00;99562.86;1657682;85;21100;-73
2021/09/27 00:53:03;;;;;;;4.85;3.33;;;;;;;10.07;100.00;99559.77;1657371;85;20966;-74
2021/09/27 00:55:31;;;;;;;5.75;3.30;;;;;;;10.02;100.00;99561.52;1657525;85;20924;-73
2021/09/27 00:58:00;;;;;;;7.20;3.98;;;;;;;9.99;100.00;99560.19;1659125;83;20963;-72
2021/09/27 01:00:37;;;;;;;8.83;3.55;;;;;;;9.99;100.00;99556.23;1659977;83;21526;-73
2021/09/27 01:03:07;;;;;;;6.85;4.12;;;;;;;10.02;100.00;99556.67;1682857;83;20952;-73
2021/09/27 01:05:40;;;;;;;9.60;4.10;;;;;;;10.03;100.00;99563.70;1666795;83;20944;-73
2021/09/27 01:08:36;;;;;;;7.37;3.65;;;;;;;10.06;100.00;99564.59;1659229;83;20940;-73
2021/09/27 01:11:28;;;;;;;9.08;4.00;;;;;;;10.11;100.00;99561.97;1641529;83;21483;-73
2021/09/27 01:14:33;;;;;;;7.03;3.83;;;;;;;10.19;100.00;99568.14;1685067;83;20995;-73
2021/09/27 01:17:49;;;;;;;8.43;4.25;;;;;;;10.24;100.00;99565.55;1687227;82;21097;-73
2021/09/27 01:20:46;;;;;;;9.90;4.53;;;;;;;10.28;100.00;99569.50;1690083;83;20957;-73
2021/09/27 01:23:24;;;;;;;8.60;3.85;;;;;;;10.30;100.00;99566.43;1679721;83;20928;-73
2021/09/27 01:26:10;;;;;;;7.67;3.92;;;;;;;10.33;100.00;99572.15;1700961;82;21441;-72
2021/09/27 01:29:05;;;;;;;9.73;4.03;;;;;;;10.38;100.00;99572.59;1707067;82;20908;-73
2021/09/27 01:32:12;;;;;;;9.40;4.12;;;;;;;10.39;100.00;99572.16;1744830;82;21534;-72
2021/09/27 01:35:16;;;;;;;9.28;4.33;;;;;;;10.40;100.00;99581.83;1708258;82;21443;-73
2021/09/27 01:38:18;;;;;;;9.60;4.15;;;;;;;10.37;100.00;99580.50;1703732;82;21424;-72
2021/09/27 01:41:26;;;;;;;7.17;3.90;;;;;;;10.37;100.00;99577.87;1706337;82;20940;-73
2021/09/27 01:44:28;;;;;;;9.38;3.95;;;;;;;10.40;100.00;99585.38;1743745;82;20943;-72
2021/09/27 01:47:01;;;;;;;7.65;3.90;;;;;;;10.39;100.00;99580.95;1632809;86;21387;-73
2021/09/27 01:49:54;;;;;;;7.78;3.70;;;;;;;10.36;100.00;99580.94;1715327;83;20888;-73
2021/09/27 01:56:35;;;;;;;8.20;4.28;;;;;;;10.31;100.00;99577.86;1719362;82;21003;-73
2021/09/27 01:59:19;;;;;;;7.45;4.03;;;;;;;10.31;100.00;99571.27;1736829;82;21420;-73
2021/09/27 02:02:09;;;;;;;9.33;4.10;;;;;;;10.30;100.00;99575.66;1738619;82;21507;-73
2021/09/27 02:04:48;;;;;;;7.72;3.98;;;;;;;10.26;100.00;99575.66;1738682;82;21526;-73
2021/09/27 02:07:19;;;;;;;8.18;4.12;;;;;;;10.23;100.00;99575.64;1743676;82;20913;-74
2021/09/27 02:10:01;;;;;;;7.35;4.12;;;;;;;10.21;100.00;99573.01;1744749;82;20952;-73
2021/09/27 02:12:41;;;;;;;8.63;4.12;;;;;;;10.22;100.00;99574.77;1706941;82;20877;-74
2021/09/27 02:16:00;;;;;;;7.17;3.87;;;;;;;10.24;100.00;99573.45;1708944;82;21121;-73
2021/09/27 02:18:56;;;;;;;7.80;3.85;;;;;;;10.19;100.00;99578.68;1705100;82;21002;-72
2021/09/27 02:21:44;;;;;;;7.65;4.55;;;;;;;10.17;100.00;99574.28;1689891;83;21485;-74
2021/09/27 02:25:02;;;;;;;6.55;3.98;;;;;;;10.13;100.00;99572.52;1666829;84;21488;-74
2021/09/27 02:28:15;;;;;;;;;;;;;;;;;;;;;
2021/09/27 02:30:55;;;;;;;7.15;4.00;;;;;;;10.15;100.00;99587.90;1694390;82;23022;-73
2021/09/27 02:34:04;;;;;;;9.43;4.20;;;;;;;10.12;100.00;99589.20;1715124;82;20896;-75
2021/09/27 02:37:01;;;;;;;12.45;4.47;;;;;;;10.10;100.00;99587.89;1744318;81;21466;-68
2021/09/27 02:39:40;;;;;;;10.65;4.00;;;;;;;10.07;100.00;99586.12;1740432;82;20900;-75
2021/09/27 02:42:15;;;;;;;10.08;4.30;;;;;;;10.10;100.00;99590.52;1749975;82;21458;-74
2021/09/27 02:44:48;;;;;;;7.97;4.37;;;;;;;10.12;100.00;99588.77;1715043;82;21102;-75
2021/09/27 02:47:23;;;;;;;7.33;4.12;;;;;;;10.11;100.00;99587.02;1715967;82;21427;-68
2021/09/27 02:50:03;;;;;;;8.18;4.15;;;;;;;10.08;100.00;99584.37;1753017;81;20912;-72
2021/09/27 02:52:33;;;;;;;8.63;4.20;;;;;;;10.04;100.00;99589.19;1752097;82;21438;-75
2021/09/27 02:55:10;;;;;;;12.47;4.22;;;;;;;9.99;100.00;99582.59;1752635;82;20943;-74
2021/09/27 02:58:11;;;;;;;8.60;3.77;;;;;;;9.94;100.00;99581.69;1752518;82;21105;-75
2021/09/27 03:01:06;;;;;;;11.83;4.50;;;;;;;9.92;100.00;99585.16;1753036;82;20866;-74
2021/09/27 03:03:56;;;;;;;6.35;3.67;;;;;;;9.87;100.00;99586.91;1751738;81;21372;-76
2021/09/27 03:06:52;;;;;;;9.30;4.05;;;;;;;9.82;100.00;99582.94;1747042;82;21004;-75
2021/09/27 03:09:39;;;;;;;11.40;3.98;;;;;;;9.76;100.00;99581.59;1746404;82;20897;-74
2021/09/27 03:12:13;;;;;;;7.85;3.90;;;;;;;9.69;100.00;99595.62;1721153;82;21104;-76
2021/09/27 03:15:07;;;;;;;9.13;4.12;;;;;;;9.65;100.00;99597.80;1748123;81;21550;-76
2021/09/27 03:17:45;;;;;;;6.92;3.83;;;;;;;9.62;100.00;99596.47;1740551;81;20907;-63
2021/09/27 03:20:50;;;;;;;8.53;3.83;;;;;;;9.61;100.00;99598.66;1719106;82;20999;-70
2021/09/27 03:24:00;;;;;;;9.08;3.72;;;;;;;9.64;100.00;99597.35;1718666;82;20893;-69
2021/09/27 03:26:54;;;;;;;8.35;3.83;;;;;;;9.65;100.00;99597.36;1715631;82;21087;-63
2021/09/27 03:29:30;;;;;;;9.98;3.98;;;;;;;9.65;100.00;99599.99;1670561;83;20856;-71
2021/09/27 03:32:18;;;;;;;6.60;3.67;;;;;;;9.64;100.00;99602.63;1667710;83;20896;-74
2021/09/27 03:35:04;;;;;;;7.53;3.72;;;;;;;9.65;100.00;99613.16;1676819;83;20966;-75
2021/09/27 03:37:45;;;;;;;6.30;3.37;;;;;;;9.68;100.00;99605.71;1650936;85;21026;-77
2021/09/27 03:40:58;;;;;;;9.38;3.60;;;;;;;9.68;100.00;99614.93;1650249;87;21757;-73
2021/09/27 03:43:57;;;;;;;8.48;4.05;;;;;;;9.64;100.00;99621.94;1662385;85;20876;-62
2021/09/27 03:46:37;;;;;;;7.85;3.77;;;;;;;9.57;100.00;99621.90;1662652;85;21024;-76
2021/09/27 03:49:15;;;;;;;6.30;3.55;;;;;;;9.54;100.00;99633.73;1651278;87;21519;-75
2021/09/27 03:51:54;;;;;;;8.58;3.98;;;;;;;9.56;100.00;99630.67;1651399;85;20916;-76
2021/09/27 03:54:36;;;;;;;7.53;3.67;;;;;;;9.56;100.00;99634.63;1662823;85;21076;-75
2021/09/27 03:57:34;;;;;;;7.90;3.62;;;;;;;9.54;100.00;99633.30;1663048;85;20872;-76
2021/09/27 04:00:03;;;;;;;6.90;3.60;;;;;;;9.53;100.00;99631.53;1650782;86;20941;-76
2021/09/27 04:02:42;;;;;;;7.17;3.70;;;;;;;9.50;100.00;99626.69;1653010;85;20948;-74
2021/09/27 04:05:48;;;;;;;7.35;4.05;;;;;;;9.50;100.00;99629.32;1662902;86;20952;-75
2021/09/27 04:08:24;;;;;;;6.15;4.03;;;;;;;9.49;100.00;99625.80;1651493;86;21746;-76
2021/09/27 04:11:06;;;;;;;7.72;4.40;;;;;;;9.47;100.00;99631.50;1624526;87;20929;-75
2021/09/27 04:13:57;;;;;;;7.17;3.92;;;;;;;9.45;100.00;99630.58;1636158;86;21438;-75
2021/09/27 04:16:35;;;;;;;7.72;4.17;;;;;;;9.45;100.00;99635.84;1635638;87;21031;-76
2021/09/27 04:19:44;;;;;;;7.40;4.03;;;;;;;9.45;100.00;99630.58;1646891;86;20889;-76
2021/09/27 04:22:34;;;;;;;6.92;3.75;;;;;;;9.45;100.00;99634.53;1720700;83;21114;-76
2021/09/27 04:25:07;;;;;;;6.33;3.65;;;;;;;9.41;100.00;99628.36;1720717;83;20917;-76
2021/09/27 04:27:49;;;;;;;7.28;3.22;;;;;;;9.39;100.00;99628.79;1711550;83;20885;-76
2021/09/27 04:30:49;;;;;;;8.00;3.40;;;;;;;9.40;100.00;99632.30;1721140;83;20909;-76
2021/09/27 04:33:53;;;;;;;6.65;3.55;;;;;;;9.43;100.00;99631.01;1720831;83;20937;-77
2021/09/27 04:36:35;;;;;;;6.87;3.80;;;;;;;9.42;100.00;99626.17;1720556;83;21507;-75
2021/09/27 04:39:13;;;;;;;7.83;4.10;;;;;;;9.40;100.00;99624.41;1720772;83;21424;-76
2021/09/27 04:42:27;;;;;;;6.95;3.98;;;;;;;9.36;100.00;99622.19;1721209;83;20945;-76
2021/09/27 04:45:31;;;;;;;6.33;3.47;;;;;;;9.36;100.00;99619.99;1721296;83;20965;-76
2021/09/27 04:48:08;;;;;;;9.23;4.42;;;;;;;9.36;100.00;99626.58;1721302;83;20932;-76
2021/09/27 04:51:05;;;;;;;6.78;4.50;;;;;;;9.37;100.00;99631.84;1721319;83;21086;-76
2021/09/27 04:53:47;;;;;;;9.30;4.83;;;;;;;9.35;100.00;99634.03;1715448;83;20960;-76
2021/09/27 04:56:44;;;;;;;9.77;4.60;;;;;;;9.32;100.00;99624.80;1713914;83;20977;-76
2021/09/27 04:59:39;;;;;;;9.53;3.72;;;;;;;9.30;100.00;99622.59;1720803;83;20901;-75
2021/09/27 05:02:46;;;;;;;5.12;3.37;;;;;;;9.33;100.00;99623.48;1721150;83;20956;-75
2021/09/27 05:05:41;;;;;;;5.25;3.35;;;;;;;9.33;100.00;99627.44;1721065;83;21472;-75
2021/09/27 05:08:29;;;;;;;5.47;3.08;;;;;;;9.33;100.00;99634.45;1721171;83;20906;-75
2021/09/27 05:11:28;;;;;;;5.42;3.33;;;;;;;9.34;100.00;99638.84;1720841;83;20909;-75
2021/09/27 05:14:12;;;;;;;5.87;3.30;;;;;;;9.37;100.00;99645.45;1721332;83;21080;-75
2021/09/27 05:17:16;;;;;;;6.33;3.25;;;;;;;9.42;100.00;99652.94;1721143;83;20949;-74
2021/09/27 05:20:22;;;;;;;8.70;3.70;;;;;;;9.46;100.00;99654.76;1712397;83;21436;-75
2021/09/27 05:23:06;;;;;;;7.33;3.33;;;;;;;9.50;100.00;99655.22;1709749;83;20902;-75
2021/09/27 05:26:04;;;;;;;7.67;3.30;;;;;;;9.53;100.00;99656.55;1709593;83;20933;-74
2021/09/27 05:28:36;;;;;;;7.12;3.00;;;;;;;9.59;100.00;99647.81;1709809;84;20938;-75
2021/09/27 05:31:33;;;;;;;5.62;3.05;;;;;;;9.67;100.00;99657.95;1708754;83;20901;-74
2021/09/27 05:34:21;;;;;;;6.33;3.00;;;;;;;9.74;100.00;99656.67;1710088;83;21033;-75
2021/09/27 05:37:22;;;;;;;5.08;2.70;;;;;;;9.81;100.00;99658.91;1709751;83;20912;-75
2021/09/27 05:40:07;;;;;;;5.92;2.95;;;;;;;9.87;100.00;99658.93;1709774;83;20905;-76
2021/09/27 05:42:58;;;;;;;5.00;2.75;;;;;;;9.95;100.00;99651.97;1709840;84;20961;-75
2021/09/27 05:45:32;;;;;;;9.30;3.47;;;;;;;10.08;100.00;99657.73;1710135;83;20938;-76
2021/09/27 05:48:32;;;;;;;8.75;2.70;;;;;;;10.18;100.00;99652.05;1710040;83;20894;-75
2021/09/27 05:51:11;;;;;;;5.50;3.08;;;;;;;10.27;100.00;99658.71;1709717;83;20953;-75
2021/09/27 05:54:02;;;;;;;6.35;2.80;;;;;;;10.36;100.00;99661.38;1710125;83;20906;-74
2021/09/27 05:56:58;;;;;;;6.25;2.60;;;;;;;10.47;100.00;99653.95;1709824;84;20930;-76
2021/09/27 05:59:45;;;;;;;5.78;2.98;;;;;;;10.60;100.00;99651.34;1690222;83;20934;-76
2021/09/27 06:02:52;;;;;;;5.60;2.83;;;;;;;10.72;100.00;99654.00;1709863;83;21128;-74
2021/09/27 06:05:32;;;;;;;5.45;2.85;;;;;;;10.83;100.00;99651.81;1710166;83;20906;-76
2021/09/27 06:08:30;;;;;;;8.73;2.52;;;;;;;10.94;100.00;99654.05;1709891;83;20957;-75
2021/09/27 06:11:24;;;;;;;6.55;2.83;;;;;;;11.04;100.00;99652.73;1710063;83;21596;-75
2021/09/27 06:13:52;;;;;;;7.92;3.00;;;;;;;11.20;100.00;99656.69;1710158;83;20961;-75
2021/09/27 06:16:36;;;;;;;5.22;2.70;;;;;;;11.32;100.00;99652.70;1710310;83;21086;-75
2021/09/27 06:19:25;;;;;;;4.78;2.87;;;;;;;11.43;100.00;99663.30;1714490;82;21422;-75
2021/09/27 06:22:11;;;;;;;5.97;2.77;;;;;;;11.52;100.00;99659.31;1723448;82;20878;-75
2021/09/27 06:25:03;;;;;;;6.87;3.05;;;;;;;11.61;100.00;99656.20;1723448;83;20969;-75
2021/09/27 06:27:39;;;;;;;4.30;2.70;;;;;;;11.88;100.00;99653.99;1723373;83;20913;-75
2021/09/27 06:30:37;;;;;;;6.15;3.05;;;;;;;11.88;100.00;99653.99;1723450;83;21951;-75
2021/09/27 06:33:18;;;;;;;6.50;2.70;;;;;;;12.02;100.00;99663.20;1705362;83;20963;-75
2021/09/27 06:35:48;;;;;;;5.58;2.40;;;;;;;12.14;100.00;99660.50;1723489;83;20901;-75
2021/09/27 06:38:15;;;;;;;3.15;2.33;;;;;;;12.26;100.00;99660.88;1722985;83;20985;-75
2021/09/27 06:40:47;;;;;;;5.87;2.65;;;;;;;12.37;100.00;99660.86;1723245;83;21439;-76
2021/09/27 06:43:18;;;;;;;3.65;2.20;;;;;;;12.46;100.00;99659.05;1723432;83;21062;-75
2021/09/27 06:45:45;;;;;;;5.90;2.40;;;;;;;12.57;100.00;99661.62;1722943;83;21429;-75
2021/09/27 06:48:12;;;;;;;3.75;2.62;;;;;;;12.71;100.00;99660.21;1722890;83;20969;-75
2021/09/27 06:50:40;;;;;;;7.05;2.83;;;;;;;12.81;100.00;99663.27;1723011;83;20921;-75
2021/09/27 06:53:07;;;;;;;5.58;2.80;;;;;;;12.88;100.00;99655.27;1722913;83;20921;-74
2021/09/27 06:55:34;;;;;;;6.65;2.70;;;;;;;12.97;100.00;99655.64;1723008;82;21141;-75
2021/09/27 06:58:01;;;;;;;6.35;2.20;;;;;;;13.05;100.00;99656.45;1722694;83;20916;-76
2021/09/27 07:00:29;;;;;;;5.17;1.82;;;;;;;13.14;100.00;99655.05;1723496;83;20905;-75
2021/09/27 07:02:56;;;;;;;4.62;2.00;;;;;;;13.21;100.00;99650.17;1722895;83;21025;-75
2021/09/27 07:05:23;;;;;;;4.35;1.67;;;;;;;13.31;100.00;99650.12;1723046;83;20921;-74
2021/09/27 07:07:51;;;;;;;3.42;1.70;;;;;;;13.36;100.00;99650.95;1722872;83;21101;-74
2021/09/27 07:10:22;;;;;;;3.98;1.60;;;;;;;13.45;100.00;99652.19;1722904;82;20885;-74
2021/09/27 07:12:49;;;;;;;3.10;1.93;;;;;;;13.55;100.00;99643.25;1722969;83;20928;-74
2021/09/27 07:15:17;;;;;;;4.30;2.10;;;;;;;13.67;100.00;99649.75;1722896;82;20873;-74
2021/09/27 07:17:44;;;;;;;23.22;2.98;;;;;;;13.79;100.00;99652.74;1722759;83;20961;-73
2021/09/27 07:20:18;;;;;;;4.58;1.60;;;;;;;13.91;100.00;99644.64;1713645;83;21820;-74
2021/09/27 07:22:46;;;;;;;2.60;1.50;;;;;;;14.03;100.00;99652.91;1709545;83;20870;-74
2021/09/27 07:25:14;;;;;;;6.97;1.50;;;;;;;14.12;100.00;99652.78;1709326;83;21048;-74
2021/09/27 07:27:41;;;;;;;1.67;1.10;;;;;;;14.22;100.00;99652.25;1688871;84;21517;-74
2021/09/27 07:30:09;;;;;;;2.75;1.30;;;;;;;14.33;100.00;99656.97;1709314;83;21001;-74
2021/09/27 07:32:37;;;;;;;2.42;1.20;;;;;;;14.42;100.00;99651.13;1709175;83;21426;-74
2021/09/27 07:35:06;;;;;;;3.67;1.45;;;;;;;14.53;100.00;99650.09;1709125;83;20921;-74
2021/09/27 07:37:33;;;;;;;4.42;2.00;;;;;;;14.64;100.00;99650.81;1709420;84;20889;-74
2021/09/27 07:40:01;;;;;;;9.53;1.85;;;;;;;14.72;100.00;99648.95;1709276;84;21437;-74
2021/09/27 07:42:28;;;;;;;3.27;1.40;;;;;;;14.80;100.00;99647.94;1709581;83;20925;-74
2021/09/27 07:44:55;;;;;;;2.47;1.20;;;;;;;14.86;100.00;99637.67;1709384;83;21250;-74
2021/09/27 07:47:22;;;;;;;2.25;1.30;;;;;;;14.92;100.00;99645.54;1709795;82;20957;-75
2021/09/27 07:49:50;;;;;;;3.45;1.77;;;;;;;14.94;100.00;99649.05;1709558;82;20926;-74
2021/09/27 07:52:17;;;;;;;6.15;1.80;;;;;;;14.98;100.00;99646.77;1709431;83;21497;-75
2021/09/27 07:54:44;;;;;;;4.62;1.52;;;;;;;15.03;100.00;99652.02;1709327;83;20903;-74
2021/09/27 07:57:14;;;;;;;3.00;1.20;;;;;;;15.05;100.00;99651.08;1709150;84;21080;-75
2021/09/27 07:59:41;;;;;;;2.60;1.40;;;;;;;15.09;100.00;99659.88;1709358;83;21028;-74
2021/09/27 08:02:10;;;;;;;2.30;1.25;;;;;;;15.14;100.00;99659.39;1709075;83;20882;-74
2021/09/27 08:04:37;;;;;;;3.20;1.40;;;;;;;15.24;100.00;99660.11;1709535;82;20921;-75
2021/09/27 08:15:10;;;;;;;3.00;1.00;;;;;;;15.64;100.00;99657.69;1709588;83;21409;-75
2021/09/27 08:17:37;;;;;;;1.50;0.93;;;;;;;15.78;100.00;99652.98;1709588;83;20910;-75
2021/09/27 08:20:06;;;;;;;3.27;1.00;;;;;;;15.87;100.00;99655.45;1709255;83;20907;-74
2021/09/27 08:22:34;;;;;;;14.40;1.40;;;;;;;15.94;100.00;99658.42;1709457;83;20938;-74
2021/09/27 08:25:01;;;;;;;4.00;1.12;;;;;;;15.98;100.00;99652.13;1709539;83;21032;-74
2021/09/27 08:27:30;;;;;;;1.60;0.93;;;;;;;16.06;100.00;99657.30;1709318;83;20957;-74
2021/09/27 08:29:58;;;;;;;1.67;1.00;;;;;;;16.13;100.00;99650.98;1709650;82;20906;-74
2021/09/27 08:32:25;;;;;;;1.70;0.82;;;;;;;16.24;100.00;99650.75;1709711;84;21442;-75
2021/09/27 08:34:53;;;;;;;1.07;0.70;;;;;;;16.35;100.00;99646.95;1710141;83;20946;-74
2021/09/27 08:37:21;;;;;;;3.83;0.80;;;;;;;16.49;100.00;99645.31;1709581;84;21092;-74
2021/09/27 08:39:49;;;;;;;0.65;0.60;;;;;;;16.66;100.00;99647.66;1709604;83;21509;-74
2021/09/27 08:42:23;;;;;;;2.85;0.68;;;;;;;16.81;100.00;99651.75;1709310;83;21524;-74
2021/09/27 08:44:57;;;;;;;1.75;0.50;;;;;;;16.94;100.00;99638.56;1709195;83;20930;-74
2021/09/27 08:47:36;;;;;;;2.65;0.70;;;;;;;17.10;100.00;99635.09;1709489;83;20918;-75
2021/09/27 08:50:12;;;;;;;0.82;0.60;;;;;;;17.25;100.00;99634.24;1709374;83;21461;-74
2021/09/27 08:52:41;;;;;;;0.98;0.68;;;;;;;17.43;100.00;99634.69;1709297;84;20922;-74
2021/09/27 08:55:11;;;;;;;0.93;0.62;;;;;;;17.60;100.00;99632.02;1709559;82;20998;-74
2021/09/27 08:57:55;;;;;;;5.53;0.72;;;;;;;17.75;100.00;99622.75;1709173;82;20894;-73
2021/09/27 09:00:53;;;;;;;6.75;1.05;;;;;;;17.91;100.00;99625.86;1709585;83;20878;-73
2021/09/27 09:03:41;;;;;;;2.65;0.50;;;;;;;18.06;100.00;99623.24;1709508;83;23779;-73
2021/09/27 09:06:23;;;;;;;1.92;0.70;;;;;;;18.12;100.00;99627.06;1709420;83;20914;-74
2021/09/27 09:09:03;;;;;;;0.78;0.50;;;;;;;18.19;96.88;99624.63;1703741;82;20996;-74
2021/09/27 09:11:41;;;;;;;1.12;0.50;;;;;;;18.28;95.44;99627.03;1709531;84;20958;-74
2021/09/27 09:14:51;;;;;;;4.10;0.47;;;;;;;18.46;94.35;99618.95;1705651;83;20930;-74
2021/09/27 09:17:36;;;;;;;0.42;0.40;;;;;;;18.64;91.64;99621.55;1709679;83;21141;-73
2021/09/27 09:20:12;;;;;;;0.60;0.50;;;;;;;18.84;90.47;99623.12;1709305;83;20918;-74
2021/09/27 09:22:43;;;;;;;2.02;0.70;;;;;;;18.91;87.77;99623.33;1709376;83;20973;-73
2021/09/27 09:25:26;;;;;;;1.47;0.60;;;;;;;18.87;83.99;99621.69;1709539;83;21437;-74
2021/09/27 09:27:55;;;;;;;1.80;0.50;;;;;;;18.75;81.51;99621.62;1709288;84;21434;-74
2021/09/27 09:30:30;;;;;;;0.98;0.60;;;;;;;18.65;80.11;99624.62;1709469;83;21432;-73
2021/09/27 09:32:59;;;;;;;4.33;0.62;;;;;;;18.63;82.16;99618.00;1707297;83;20961;-73
2021/09/27 09:35:30;;;;;;;15.70;2.08;;;;;;;18.69;82.47;99615.13;1709528;84;20961;-73
2021/09/27 09:38:07;;;;;;;1.75;0.75;;;;;;;18.78;83.24;99609.95;1709257;83;20894;-73
2021/09/27 09:40:52;;;;;;;0.60;0.50;;;;;;;18.88;82.22;99614.95;1709540;83;21461;-72
2021/09/27 09:43:38;;;;;;;1.02;0.40;;;;;;;19.01;81.17;99613.24;1703872;83;21103;-73
2021/09/27 09:46:16;;;;;;;1.77;0.50;;;;;;;19.21;80.70;99613.91;1709411;83;21456;-74
2021/09/27 09:49:09;;;;;;;0.85;0.60;;;;;;;19.36;78.80;99611.59;1709223;84;21010;-74
2021/09/27 09:51:41;;;;;;;1.30;0.57;;;;;;;19.39;75.19;99610.17;1691631;83;21465;-74
2021/09/27 09:54:18;;;;;;;2.55;0.50;;;;;;;19.36;74.42;99614.26;1709164;83;20882;-74
2021/09/27 09:57:00;;;;;;;0.88;0.50;;;;;;;19.33;73.45;99614.37;1709376;83;20957;-74
2021/09/27 09:59:38;;;;;;;0.68;0.50;;;;;;;19.28;72.07;99614.11;1709253;84;20953;-74
2021/09/27 10:02:19;;;;;;;0.72;0.40;;;;;;;19.19;71.73;99620.19;1709711;83;20917;-74
2021/09/27 10:04:54;;;;;;;0.40;0.40;;;;;;;19.05;69.71;99617.10;1709185;84;20973;-74
2021/09/27 10:07:29;;;;;;;0.78;0.40;;;;;;;18.99;70.77;99615.97;1708792;84;21485;-73
2021/09/27 10:10:03;;;;;;;2.45;0.40;;;;;;;18.99;71.58;99616.43;1689620;84;20913;-73
2021/09/27 10:12:50;;;;;;;0.95;0.72;;;;;;;19.03;72.44;99618.08;1709147;83;21421;-73
2021/09/27 10:15:41;;;;;;;1.85;0.50;;;;;;;19.04;72.18;99615.81;1709111;84;20914;-73
2021/09/27 10:18:28;;;;;;;0.50;0.45;;;;;;;19.00;70.76;99615.05;1709225;83;20926;-73
2021/09/27 10:21:18;;;;;;;0.40;0.40;;;;;;;18.90;70.87;99610.02;1717509;83;20960;-73
2021/09/27 10:23:50;;;;;;;1.87;0.50;;;;;;;18.80;70.57;99608.11;1707160;83;20896;-74
2021/09/27 10:26:35;;;;;;;0.90;0.60;;;;;;;18.76;72.83;99607.33;1722668;83;20940;-74
2021/09/27 10:29:07;;;;;;;2.27;0.40;;;;;;;18.75;72.01;99608.25;1722510;82;20960;-74
2021/09/27 10:31:38;;;;;;;1.60;0.60;;;;;;;18.71;71.07;99597.25;1722873;83;20965;-73
2021/09/27 10:34:17;;;;;;;0.70;0.50;;;;;;;18.71;71.07;99597.25;1722598;83;20941;-73
2021/09/27 10:36:58;;;;;;;1.40;0.50;;;;;;;18.74;70.33;99589.59;1722696;83;20937;-74
2021/09/27 10:39:27;;;;;;;0.72;0.40;;;;;;;18.80;69.27;99594.74;1722473;83;20881;-74
2021/09/27 10:42:09;;;;;;;0.45;0.45;;;;;;;18.83;68.23;99595.52;1720064;83;21460;-73
2021/09/27 10:44:52;;;;;;;0.50;0.40;;;;;;;18.86;69.46;99583.84;1722644;82;21349;-73
2021/09/27 10:47:31;;;;;;;1.92;0.40;;;;;;;18.84;69.11;99583.90;1722699;83;20957;-74
2021/09/27 10:50:07;;;;;;;1.35;0.70;;;;;;;18.82;68.51;99587.55;1722464;83;21058;-72
2021/09/27 10:52:49;;;;;;;1.12;0.47;;;;;;;18.77;68.22;99585.48;1722330;82;20976;-73
2021/09/27 10:55:35;;;;;;;0.65;0.40;;;;;;;18.72;68.05;99581.63;1696061;83;20968;-74
2021/09/27 10:58:10;;;;;;;1.47;0.50;;;;;;;18.75;70.01;99574.84;1722306;83;21520;-74
2021/09/27 11:00:52;;;;;;;2.35;0.60;;;;;;;18.91;73.12;99582.36;1695990;83;20893;-73
2021/09/27 11:03:47;;;;;;;4.83;0.82;;;;;;;19.07;74.10;99581.83;1719629;83;21138;-66
2021/09/27 11:06:42;;;;;;;4.20;0.70;;;;;;;19.21;72.59;99577.80;1722361;83;20960;-69
2021/09/27 11:09:30;;;;;;;1.80;0.60;;;;;;;19.29;71.99;99571.73;1700659;83;20901;-62
2021/09/27 11:12:17;;;;;;;1.87;0.65;;;;;;;19.37;71.30;99574.55;1722391;83;21421;-62
2021/09/27 11:15:03;;;;;;;8.63;1.20;;;;;;;19.44;69.64;99576.11;1722671;83;20873;-63
2021/09/27 11:17:40;;;;;;;1.75;0.60;;;;;;;19.49;68.14;99577.28;1718985;83;21562;-63
2021/09/27 11:20:32;;;;;;;0.62;0.50;;;;;;;19.46;67.09;99578.27;1688722;84;20959;-61
2021/09/27 11:23:21;;;;;;;0.72;0.53;;;;;;;19.40;65.47;99578.48;1684296;85;20936;-62
2021/09/27 11:26:19;;;;;;;1.30;0.75;;;;;;;19.33;64.60;99569.36;1684863;85;20955;-63
2021/09/27 11:29:05;;;;;;;4.53;0.60;;;;;;;19.30;65.08;99571.67;1638290;87;20950;-63
2021/09/27 11:31:39;;;;;;;1.40;0.40;;;;;;;19.31;66.18;99576.56;1638335;87;21093;-62
2021/09/27 11:34:33;;;;;;;0.55;0.50;;;;;;;19.28;65.12;99573.53;1665984;83;20998;-61
2021/09/27 11:37:23;;;;;;;4.35;0.70;;;;;;;19.21;63.91;99570.66;1683326;85;21407;-61
2021/09/27 11:40:13;;;;;;;5.15;0.60;;;;;;;19.12;63.69;99579.88;1683880;85;20919;-62
2021/09/27 11:43:24;;;;;;;11.50;1.15;;;;;;;19.03;63.62;99577.97;1684944;85;20928;-62
2021/09/27 11:46:04;;;;;;;0.80;0.60;;;;;;;18.95;62.93;99570.67;1678825;85;21937;-62
2021/09/27 11:48:46;;;;;;;4.33;0.57;;;;;;;18.84;62.64;99579.02;1684377;83;21427;-62
2021/09/27 11:51:23;;;;;;;0.93;0.60;;;;;;;18.78;63.07;99577.88;1684630;83;20947;-62
2021/09/27 11:54:02;;;;;;;6.42;0.60;;;;;;;18.74;63.29;99574.44;1684823;83;20951;-63
2021/09/27 11:57:09;;;;;;;2.17;0.50;;;;;;;18.68;62.46;99582.66;1685039;83;21455;-62
2021/09/27 12:00:09;;;;;;;2.60;0.68;;;;;;;18.63;63.44;99580.59;1685624;85;21105;-63
2021/09/27 12:02:52;;;;;;;2.33;0.70;;;;;;;18.56;64.66;99579.88;1685940;85;20987;-62
2021/09/27 12:05:45;;;;;;;1.47;0.50;;;;;;;18.52;65.18;99582.70;1682452;85;20916;-62
2021/09/27 12:08:30;;;;;;;0.80;0.60;;;;;;;18.44;65.71;99585.58;1653969;84;20975;-62
2021/09/27 12:11:13;;;;;;;0.60;0.50;;;;;;;18.39;65.75;99575.95;1687588;83;20919;-62
2021/09/27 12:13:48;;;;;;;3.62;0.70;;;;;;;18.33;65.67;99579.69;1690033;83;21759;-62
2021/09/27 12:16:25;;;;;;;14.58;6.62;;;;;;;18.28;65.71;99572.74;1689139;84;20873;-62
2021/09/27 12:19:01;;;;;;;30.75;14.28;;;;;;;18.22;65.69;99580.48;1681959;83;20943;-61
2021/09/27 12:21:35;;;;;;;19.55;11.97;;;;;;;18.17;65.96;99582.42;1682015;83;20959;-62
2021/09/27 12:24:11;;;;;;;;;;;;;;;18.13;65.91;99580.30;1687785;83;20912;-62
2021/09/27 12:26:46;;;;;;;4.65;3.02;;;;;;;18.11;65.09;99581.27;1687890;85;21085;-60
2021/09/27 12:29:21;;;;;;;3.85;2.83;;;;;;;18.08;65.41;99580.02;1689188;85;20889;-61
2021/09/27 12:32:02;;;;;;;4.50;2.20;;;;;;;18.02;65.54;99574.41;1685844;83;20960;-62
2021/09/27 12:34:44;;;;;;;2.87;0.90;;;;;;;17.96;65.44;99575.89;1681409;85;20934;-62
2021/09/27 12:37:17;;;;;;;2.42;0.82;;;;;;;17.90;66.07;99577.41;1684528;83;20951;-62
2021/09/27 12:39:47;;;;;;;2.30;0.70;;;;;;;17.85;67.52;99576.66;1687783;83;20955;-62
2021/09/27 12:42:24;;;;;;;1.12;0.78;;;;;;;17.80;69.05;99575.92;1687392;85;20948;-62
2021/09/27 12:45:14;;;;;;;0.60;0.60;;;;;;;17.76;70.08;99576.92;1683672;85;20901;-61
2021/09/27 12:47:44;;;;;;;2.45;0.47;;;;;;;17.70;70.59;99581.11;1688165;84;20951;-61
2021/09/27 12:50:17;;;;;;;2.40;0.50;;;;;;;17.60;70.18;99577.33;1684568;85;21431;-62
2021/09/27 12:52:58;;;;;;;;;;;;;;;17.53;71.23;99578.41;1690318;83;20916;-62